sensor_id;sensor_type;location;lat;lon;timestamp;P1;durP1;ratioP1;P2;durP2;ratioP2
13309;SDS011;6723;48.256;16.402;2022-08-07T00:01:35;3.90;;;3.40;;
13309;SDS011;6723;48.256;16.402;2022-08-07T00:04:01;3.90;;;3.60;;
13309;SDS011;6723;48.256;16.402;2022-08-07T00:06:27;3.90;;;3.30;;
13309;SDS011;6723;48.256;16.402;2022-08-07T00:08:52;3.33;;;3.03;;
13309;SDS011;6723;48.256;16.402;2022-08-07T00:11:18;3.57;;;2.77;;
13309;SDS011;6723;48.256;16.402;2022-08-07T00:13:44;3.50;;;3.20;;
13309;SDS011;6723;48.256;16.402;2022-08-07T00:16:12;4.07;;;2.80;;
13309;SDS011;6723;48.256;16.402;2022-08-07T00:18:39;3.40;;;3.10;;
13309;SDS011;6723;48.256;16.402;2022-08-07T00:21:07;5.10;;;3.30;;
13309;SDS011;6723;48.256;16.402;2022-08-07T00:23:34;4.00;;;3.00;;
13309;SDS011;6723;48.256;16.402;2022-08-07T00:26:03;4.23;;;3.17;;
13309;SDS011;6723;48.256;16.402;2022-08-07T00:28:30;3.07;;;2.80;;
13309;SDS011;6723;48.256;16.402;2022-08-07T00:30:57;4.63;;;3.20;;
13309;SDS011;6723;48.256;16.402;2022-08-07T00:33:23;4.33;;;3.00;;
13309;SDS011;6723;48.256;16.402;2022-08-07T00:35:55;3.73;;;2.90;;
13309;SDS011;6723;48.256;16.402;2022-08-07T00:38:21;3.10;;;2.90;;
13309;SDS011;6723;48.256;16.402;2022-08-07T00:40:48;3.00;;;2.80;;
13309;SDS011;6723;48.256;16.402;2022-08-07T00:43:14;3.00;;;2.70;;
13309;SDS011;6723;48.256;16.402;2022-08-07T00:45:40;4.77;;;3.63;;
13309;SDS011;6723;48.256;16.402;2022-08-07T00:48:07;3.60;;;3.13;;
13309;SDS011;6723;48.256;16.402;2022-08-07T00:50:34;3.23;;;2.93;;
13309;SDS011;6723;48.256;16.402;2022-08-07T00:53:01;3.73;;;2.90;;
13309;SDS011;6723;48.256;16.402;2022-08-07T00:55:27;3.60;;;2.93;;
13309;SDS011;6723;48.256;16.402;2022-08-07T00:57:54;3.30;;;3.00;;
13309;SDS011;6723;48.256;16.402;2022-08-07T01:00:19;3.30;;;3.00;;
13309;SDS011;6723;48.256;16.402;2022-08-07T01:02:46;3.40;;;3.10;;
13309;SDS011;6723;48.256;16.402;2022-08-07T01:05:12;4.90;;;2.87;;
13309;SDS011;6723;48.256;16.402;2022-08-07T01:07:38;4.47;;;3.20;;
13309;SDS011;6723;48.256;16.402;2022-08-07T01:10:06;3.23;;;2.93;;
13309;SDS011;6723;48.256;16.402;2022-08-07T01:12:33;6.80;;;3.07;;
13309;SDS011;6723;48.256;16.402;2022-08-07T01:15:00;3.87;;;2.80;;
13309;SDS011;6723;48.256;16.402;2022-08-07T01:17:27;3.33;;;3.03;;
13309;SDS011;6723;48.256;16.402;2022-08-07T01:19:55;3.37;;;3.07;;
13309;SDS011;6723;48.256;16.402;2022-08-07T01:22:27;3.17;;;2.70;;
13309;SDS011;6723;48.256;16.402;2022-08-07T01:24:53;3.00;;;2.80;;
13309;SDS011;6723;48.256;16.402;2022-08-07T01:27:20;3.17;;;2.80;;
13309;SDS011;6723;48.256;16.402;2022-08-07T01:29:46;4.70;;;3.23;;
13309;SDS011;6723;48.256;16.402;2022-08-07T01:32:11;3.03;;;2.83;;
13309;SDS011;6723;48.256;16.402;2022-08-07T01:34:37;5.43;;;2.87;;
13309;SDS011;6723;48.256;16.402;2022-08-07T01:37:08;3.67;;;3.30;;
13309;SDS011;6723;48.256;16.402;2022-08-07T01:39:36;2.97;;;2.50;;
13309;SDS011;6723;48.256;16.402;2022-08-07T01:42:02;3.03;;;2.60;;
13309;SDS011;6723;48.256;16.402;2022-08-07T01:44:28;4.17;;;2.83;;
13309;SDS011;6723;48.256;16.402;2022-08-07T01:46:54;3.20;;;2.90;;
13309;SDS011;6723;48.256;16.402;2022-08-07T01:49:20;3.87;;;2.83;;
13309;SDS011;6723;48.256;16.402;2022-08-07T01:51:46;3.17;;;2.80;;
13309;SDS011;6723;48.256;16.402;2022-08-07T01:54:13;3.03;;;2.83;;
13309;SDS011;6723;48.256;16.402;2022-08-07T01:59:35;3.10;;;2.73;;
13309;SDS011;6723;48.256;16.402;2022-08-07T02:02:15;5.07;;;2.87;;
13309;SDS011;6723;48.256;16.402;2022-08-07T02:04:49;3.17;;;2.80;;
13309;SDS011;6723;48.256;16.402;2022-08-07T02:07:21;3.27;;;2.97;;
13309;SDS011;6723;48.256;16.402;2022-08-07T02:09:50;5.80;;;2.90;;
13309;SDS011;6723;48.256;16.402;2022-08-07T02:12:19;3.20;;;2.90;;
13309;SDS011;6723;48.256;16.402;2022-08-07T02:14:52;3.10;;;2.80;;
13309;SDS011;6723;48.256;16.402;2022-08-07T02:17:21;4.47;;;3.03;;
13309;SDS011;6723;48.256;16.402;2022-08-07T02:19:49;3.33;;;3.00;;
13309;SDS011;6723;48.256;16.402;2022-08-07T02:22:17;3.33;;;2.67;;
13309;SDS011;6723;48.256;16.402;2022-08-07T02:24:44;3.33;;;2.50;;
13309;SDS011;6723;48.256;16.402;2022-08-07T02:27:15;4.53;;;2.70;;
13309;SDS011;6723;48.256;16.402;2022-08-07T02:29:43;2.70;;;2.50;;
13309;SDS011;6723;48.256;16.402;2022-08-07T02:32:10;4.40;;;3.10;;
13309;SDS011;6723;48.256;16.402;2022-08-07T02:34:38;3.27;;;2.60;;
13309;SDS011;6723;48.256;16.402;2022-08-07T02:37:05;3.20;;;2.90;;
13309;SDS011;6723;48.256;16.402;2022-08-07T02:39:34;2.80;;;2.60;;
13309;SDS011;6723;48.256;16.402;2022-08-07T02:42:03;2.90;;;2.60;;
13309;SDS011;6723;48.256;16.402;2022-08-07T02:44:30;2.97;;;2.67;;
13309;SDS011;6723;48.256;16.402;2022-08-07T02:46:58;2.70;;;2.43;;
13309;SDS011;6723;48.256;16.402;2022-08-07T02:49:25;3.83;;;2.70;;
13309;SDS011;6723;48.256;16.402;2022-08-07T02:51:53;3.53;;;2.40;;
13309;SDS011;6723;48.256;16.402;2022-08-07T02:54:22;3.20;;;2.60;;
13309;SDS011;6723;48.256;16.402;2022-08-07T02:56:52;2.67;;;2.47;;
13309;SDS011;6723;48.256;16.402;2022-08-07T02:59:20;4.00;;;2.60;;
13309;SDS011;6723;48.256;16.402;2022-08-07T03:01:50;3.77;;;2.83;;
13309;SDS011;6723;48.256;16.402;2022-08-07T03:04:17;5.17;;;2.70;;
13309;SDS011;6723;48.256;16.402;2022-08-07T03:06:45;5.27;;;3.20;;
13309;SDS011;6723;48.256;16.402;2022-08-07T03:09:12;2.93;;;2.60;;
13309;SDS011;6723;48.256;16.402;2022-08-07T03:11:40;3.53;;;2.50;;
13309;SDS011;6723;48.256;16.402;2022-08-07T03:14:07;3.43;;;2.83;;
13309;SDS011;6723;48.256;16.402;2022-08-07T03:16:33;3.30;;;3.00;;
13309;SDS011;6723;48.256;16.402;2022-08-07T03:19:00;3.50;;;2.97;;
13309;SDS011;6723;48.256;16.402;2022-08-07T03:21:26;2.70;;;2.50;;
13309;SDS011;6723;48.256;16.402;2022-08-07T03:23:53;4.20;;;2.97;;
13309;SDS011;6723;48.256;16.402;2022-08-07T03:26:22;3.43;;;3.00;;
13309;SDS011;6723;48.256;16.402;2022-08-07T03:28:50;3.10;;;2.80;;
13309;SDS011;6723;48.256;16.402;2022-08-07T03:31:18;4.60;;;2.60;;
13309;SDS011;6723;48.256;16.402;2022-08-07T03:33:47;3.33;;;2.70;;
13309;SDS011;6723;48.256;16.402;2022-08-07T03:36:20;3.90;;;2.97;;
13309;SDS011;6723;48.256;16.402;2022-08-07T03:38:49;3.30;;;3.00;;
13309;SDS011;6723;48.256;16.402;2022-08-07T03:41:17;3.67;;;2.83;;
13309;SDS011;6723;48.256;16.402;2022-08-07T03:43:46;4.83;;;2.70;;
13309;SDS011;6723;48.256;16.402;2022-08-07T03:46:12;3.90;;;2.70;;
13309;SDS011;6723;48.256;16.402;2022-08-07T03:48:40;4.60;;;2.77;;
13309;SDS011;6723;48.256;16.402;2022-08-07T03:51:07;3.23;;;2.93;;
13309;SDS011;6723;48.256;16.402;2022-08-07T03:53:36;3.53;;;2.40;;
13309;SDS011;6723;48.256;16.402;2022-08-07T03:56:03;2.67;;;2.47;;
13309;SDS011;6723;48.256;16.402;2022-08-07T03:58:29;2.93;;;2.73;;
13309;SDS011;6723;48.256;16.402;2022-08-07T04:00:56;4.07;;;2.40;;
13309;SDS011;6723;48.256;16.402;2022-08-07T04:03:23;4.80;;;2.73;;
13309;SDS011;6723;48.256;16.402;2022-08-07T04:05:49;3.33;;;2.80;;
13309;SDS011;6723;48.256;16.402;2022-08-07T04:08:15;3.63;;;2.40;;
13309;SDS011;6723;48.256;16.402;2022-08-07T04:10:41;3.53;;;2.87;;
13309;SDS011;6723;48.256;16.402;2022-08-07T04:13:11;2.90;;;2.70;;
13309;SDS011;6723;48.256;16.402;2022-08-07T04:15:38;4.27;;;2.63;;
13309;SDS011;6723;48.256;16.402;2022-08-07T04:18:05;3.10;;;2.80;;
13309;SDS011;6723;48.256;16.402;2022-08-07T04:20:31;3.87;;;2.57;;
13309;SDS011;6723;48.256;16.402;2022-08-07T04:22:57;2.90;;;2.60;;
13309;SDS011;6723;48.256;16.402;2022-08-07T04:25:24;3.23;;;2.57;;
13309;SDS011;6723;48.256;16.402;2022-08-07T04:27:51;2.57;;;2.37;;
13309;SDS011;6723;48.256;16.402;2022-08-07T04:30:17;2.57;;;2.37;;
13309;SDS011;6723;48.256;16.402;2022-08-07T04:32:43;3.77;;;2.90;;
13309;SDS011;6723;48.256;16.402;2022-08-07T04:35:10;3.73;;;2.70;;
13309;SDS011;6723;48.256;16.402;2022-08-07T04:37:56;2.87;;;2.37;;
13309;SDS011;6723;48.256;16.402;2022-08-07T04:40:22;3.17;;;2.70;;
13309;SDS011;6723;48.256;16.402;2022-08-07T04:42:47;4.53;;;2.60;;
13309;SDS011;6723;48.256;16.402;2022-08-07T04:45:13;3.37;;;2.47;;
13309;SDS011;6723;48.256;16.402;2022-08-07T04:53:09;5.23;;;2.60;;
13309;SDS011;6723;48.256;16.402;2022-08-07T04:56:41;2.67;;;2.47;;
13309;SDS011;6723;48.256;16.402;2022-08-07T05:04:11;2.77;;;2.57;;
13309;SDS011;6723;48.256;16.402;2022-08-07T05:06:46;2.73;;;2.40;;
13309;SDS011;6723;48.256;16.402;2022-08-07T05:09:25;4.17;;;3.00;;
13309;SDS011;6723;48.256;16.402;2022-08-07T05:11:56;2.80;;;2.60;;
13309;SDS011;6723;48.256;16.402;2022-08-07T05:14:29;5.27;;;2.60;;
13309;SDS011;6723;48.256;16.402;2022-08-07T05:17:02;4.37;;;2.50;;
13309;SDS011;6723;48.256;16.402;2022-08-07T05:19:30;2.70;;;2.37;;
13309;SDS011;6723;48.256;16.402;2022-08-07T05:22:01;2.50;;;2.30;;
13309;SDS011;6723;48.256;16.402;2022-08-07T05:24:30;5.70;;;2.70;;
13309;SDS011;6723;48.256;16.402;2022-08-07T05:26:58;3.63;;;2.60;;
13309;SDS011;6723;48.256;16.402;2022-08-07T05:29:25;2.60;;;2.40;;
13309;SDS011;6723;48.256;16.402;2022-08-07T05:31:52;8.30;;;2.60;;
13309;SDS011;6723;48.256;16.402;2022-08-07T05:36:52;3.10;;;2.53;;
13309;SDS011;6723;48.256;16.402;2022-08-07T05:39:19;3.17;;;2.37;;
13309;SDS011;6723;48.256;16.402;2022-08-07T05:41:46;2.60;;;2.40;;
13309;SDS011;6723;48.256;16.402;2022-08-07T05:44:14;2.40;;;2.20;;
13309;SDS011;6723;48.256;16.402;2022-08-07T05:46:43;2.83;;;2.43;;
13309;SDS011;6723;48.256;16.402;2022-08-07T05:49:10;2.70;;;2.50;;
13309;SDS011;6723;48.256;16.402;2022-08-07T05:51:36;3.30;;;2.60;;
13309;SDS011;6723;48.256;16.402;2022-08-07T05:54:03;3.70;;;2.60;;
13309;SDS011;6723;48.256;16.402;2022-08-07T05:56:29;3.23;;;2.53;;
13309;SDS011;6723;48.256;16.402;2022-08-07T05:58:57;2.53;;;2.27;;
13309;SDS011;6723;48.256;16.402;2022-08-07T06:01:26;2.43;;;2.23;;
13309;SDS011;6723;48.256;16.402;2022-08-07T06:03:54;3.03;;;2.60;;
13309;SDS011;6723;48.256;16.402;2022-08-07T06:06:21;4.53;;;2.40;;
13309;SDS011;6723;48.256;16.402;2022-08-07T06:08:48;3.93;;;2.77;;
13309;SDS011;6723;48.256;16.402;2022-08-07T06:11:16;3.17;;;2.47;;
13309;SDS011;6723;48.256;16.402;2022-08-07T06:13:42;2.47;;;2.20;;
13309;SDS011;6723;48.256;16.402;2022-08-07T06:16:08;3.87;;;2.60;;
13309;SDS011;6723;48.256;16.402;2022-08-07T06:18:34;7.00;;;2.40;;
13309;SDS011;6723;48.256;16.402;2022-08-07T06:21:02;3.27;;;2.30;;
13309;SDS011;6723;48.256;16.402;2022-08-07T06:23:29;2.67;;;2.40;;
13309;SDS011;6723;48.256;16.402;2022-08-07T06:25:56;5.20;;;2.70;;
13309;SDS011;6723;48.256;16.402;2022-08-07T06:28:24;3.00;;;2.40;;
13309;SDS011;6723;48.256;16.402;2022-08-07T06:30:50;2.90;;;2.23;;
13309;SDS011;6723;48.256;16.402;2022-08-07T06:33:15;2.57;;;2.13;;
13309;SDS011;6723;48.256;16.402;2022-08-07T06:35:42;2.93;;;2.30;;
13309;SDS011;6723;48.256;16.402;2022-08-07T06:38:08;3.70;;;2.73;;
13309;SDS011;6723;48.256;16.402;2022-08-07T06:40:38;4.30;;;3.17;;
13309;SDS011;6723;48.256;16.402;2022-08-07T06:43:08;4.67;;;2.77;;
13309;SDS011;6723;48.256;16.402;2022-08-07T06:45:35;5.33;;;2.53;;
13309;SDS011;6723;48.256;16.402;2022-08-07T06:48:02;5.23;;;2.33;;
13309;SDS011;6723;48.256;16.402;2022-08-07T06:50:30;4.80;;;2.30;;
13309;SDS011;6723;48.256;16.402;2022-08-07T06:52:58;2.73;;;2.07;;
13309;SDS011;6723;48.256;16.402;2022-08-07T06:55:26;4.13;;;2.40;;
13309;SDS011;6723;48.256;16.402;2022-08-07T06:57:58;3.50;;;2.33;;
13309;SDS011;6723;48.256;16.402;2022-08-07T07:00:40;3.47;;;2.67;;
13309;SDS011;6723;48.256;16.402;2022-08-07T07:03:08;3.67;;;2.47;;
13309;SDS011;6723;48.256;16.402;2022-08-07T07:05:35;5.27;;;3.53;;
13309;SDS011;6723;48.256;16.402;2022-08-07T07:08:01;3.47;;;2.73;;
13309;SDS011;6723;48.256;16.402;2022-08-07T07:10:28;3.27;;;2.23;;
13309;SDS011;6723;48.256;16.402;2022-08-07T07:13:07;2.33;;;2.07;;
13309;SDS011;6723;48.256;16.402;2022-08-07T07:15:40;5.33;;;2.10;;
13309;SDS011;6723;48.256;16.402;2022-08-07T07:21:11;3.87;;;1.80;;
13309;SDS011;6723;48.256;16.402;2022-08-07T07:23:38;2.87;;;1.87;;
13309;SDS011;6723;48.256;16.402;2022-08-07T07:26:05;2.23;;;1.90;;
13309;SDS011;6723;48.256;16.402;2022-08-07T07:28:39;2.20;;;1.90;;
13309;SDS011;6723;48.256;16.402;2022-08-07T07:31:16;2.90;;;2.60;;
13309;SDS011;6723;48.256;16.402;2022-08-07T07:33:45;2.93;;;2.73;;
13309;SDS011;6723;48.256;16.402;2022-08-07T07:36:15;3.83;;;2.50;;
13309;SDS011;6723;48.256;16.402;2022-08-07T07:38:43;3.53;;;1.90;;
13309;SDS011;6723;48.256;16.402;2022-08-07T07:41:10;3.63;;;2.00;;
13309;SDS011;6723;48.256;16.402;2022-08-07T07:43:38;2.20;;;1.90;;
13309;SDS011;6723;48.256;16.402;2022-08-07T07:46:12;3.93;;;1.97;;
13309;SDS011;6723;48.256;16.402;2022-08-07T07:48:39;3.60;;;2.00;;
13309;SDS011;6723;48.256;16.402;2022-08-07T07:51:06;3.43;;;2.07;;
13309;SDS011;6723;48.256;16.402;2022-08-07T07:53:33;2.20;;;2.00;;
13309;SDS011;6723;48.256;16.402;2022-08-07T07:56:02;2.80;;;2.07;;
13309;SDS011;6723;48.256;16.402;2022-08-07T07:58:32;2.20;;;2.00;;
13309;SDS011;6723;48.256;16.402;2022-08-07T08:01:00;3.53;;;2.40;;
13309;SDS011;6723;48.256;16.402;2022-08-07T08:03:29;3.43;;;2.10;;
13309;SDS011;6723;48.256;16.402;2022-08-07T08:05:57;4.30;;;2.10;;
13309;SDS011;6723;48.256;16.402;2022-08-07T08:08:38;5.97;;;2.20;;
13309;SDS011;6723;48.256;16.402;2022-08-07T08:11:06;6.97;;;2.60;;
13309;SDS011;6723;48.256;16.402;2022-08-07T08:13:35;5.30;;;4.20;;
13309;SDS011;6723;48.256;16.402;2022-08-07T08:16:07;8.83;;;7.73;;
13309;SDS011;6723;48.256;16.402;2022-08-07T08:18:40;7.83;;;6.30;;
13309;SDS011;6723;48.256;16.402;2022-08-07T08:21:07;5.63;;;4.70;;
13309;SDS011;6723;48.256;16.402;2022-08-07T08:23:54;5.07;;;4.00;;
13309;SDS011;6723;48.256;16.402;2022-08-07T08:26:40;5.13;;;2.93;;
13309;SDS011;6723;48.256;16.402;2022-08-07T08:29:25;4.30;;;2.50;;
13309;SDS011;6723;48.256;16.402;2022-08-07T08:31:52;4.57;;;2.40;;
13309;SDS011;6723;48.256;16.402;2022-08-07T08:34:20;4.07;;;2.10;;
13309;SDS011;6723;48.256;16.402;2022-08-07T08:36:48;3.57;;;2.40;;
13309;SDS011;6723;48.256;16.402;2022-08-07T08:39:16;3.37;;;2.93;;
13309;SDS011;6723;48.256;16.402;2022-08-07T08:41:45;4.60;;;2.50;;
13309;SDS011;6723;48.256;16.402;2022-08-07T08:44:14;2.60;;;2.40;;
13309;SDS011;6723;48.256;16.402;2022-08-07T08:46:47;3.03;;;2.70;;
13309;SDS011;6723;48.256;16.402;2022-08-07T08:52:04;3.37;;;2.30;;
13309;SDS011;6723;48.256;16.402;2022-08-07T08:54:50;3.57;;;2.30;;
13309;SDS011;6723;48.256;16.402;2022-08-07T08:57:33;3.47;;;2.53;;
13309;SDS011;6723;48.256;16.402;2022-08-07T09:00:09;4.53;;;4.13;;
13309;SDS011;6723;48.256;16.402;2022-08-07T09:07:44;5.40;;;2.20;;
13309;SDS011;6723;48.256;16.402;2022-08-07T09:10:22;2.23;;;2.00;;
13309;SDS011;6723;48.256;16.402;2022-08-07T09:12:52;2.87;;;2.20;;
13309;SDS011;6723;48.256;16.402;2022-08-07T09:15:44;2.93;;;2.10;;
13309;SDS011;6723;48.256;16.402;2022-08-07T09:18:17;2.67;;;1.97;;
13309;SDS011;6723;48.256;16.402;2022-08-07T09:20:53;4.80;;;2.20;;
13309;SDS011;6723;48.256;16.402;2022-08-07T09:23:25;2.73;;;1.87;;
13309;SDS011;6723;48.256;16.402;2022-08-07T09:29:02;2.90;;;2.10;;
13309;SDS011;6723;48.256;16.402;2022-08-07T09:34:17;3.40;;;2.20;;
13309;SDS011;6723;48.256;16.402;2022-08-07T09:37:03;2.97;;;2.23;;
13309;SDS011;6723;48.256;16.402;2022-08-07T09:39:47;4.47;;;2.50;;
13309;SDS011;6723;48.256;16.402;2022-08-07T09:48:19;6.13;;;3.67;;
13309;SDS011;6723;48.256;16.402;2022-08-07T09:53:47;3.17;;;2.40;;
13309;SDS011;6723;48.256;16.402;2022-08-07T09:59:31;4.23;;;2.47;;
13309;SDS011;6723;48.256;16.402;2022-08-07T10:14:11;4.87;;;2.50;;
13309;SDS011;6723;48.256;16.402;2022-08-07T10:41:26;3.70;;;2.20;;
13309;SDS011;6723;48.256;16.402;2022-08-07T10:46:38;1.83;;;1.58;;
13309;SDS011;6723;48.256;16.402;2022-08-07T10:49:14;4.35;;;2.55;;
13309;SDS011;6723;48.256;16.402;2022-08-07T10:52:01;2.85;;;1.73;;
13309;SDS011;6723;48.256;16.402;2022-08-07T10:54:36;2.78;;;1.88;;
13309;SDS011;6723;48.256;16.402;2022-08-07T11:00:06;1.85;;;1.50;;
13309;SDS011;6723;48.256;16.402;2022-08-07T11:14:06;1.65;;;1.55;;
13309;SDS011;6723;48.256;16.402;2022-08-07T11:19:34;3.85;;;1.50;;
13309;SDS011;6723;48.256;16.402;2022-08-07T11:27:16;1.58;;;1.40;;
13309;SDS011;6723;48.256;16.402;2022-08-07T11:30:03;2.50;;;1.70;;
13309;SDS011;6723;48.256;16.402;2022-08-07T11:32:38;2.53;;;1.88;;
13309;SDS011;6723;48.256;16.402;2022-08-07T11:35:09;2.50;;;2.10;;
13309;SDS011;6723;48.256;16.402;2022-08-07T11:52:35;1.87;;;1.73;;
13309;SDS011;6723;48.256;16.402;2022-08-07T11:58:20;2.47;;;1.90;;
13309;SDS011;6723;48.256;16.402;2022-08-07T12:06:20;2.27;;;1.77;;
13309;SDS011;6723;48.256;16.402;2022-08-07T12:08:54;2.57;;;1.80;;
13309;SDS011;6723;48.256;16.402;2022-08-07T12:11:56;2.53;;;1.53;;
13309;SDS011;6723;48.256;16.402;2022-08-07T12:14:30;2.40;;;1.60;;
13309;SDS011;6723;48.256;16.402;2022-08-07T12:17:04;2.50;;;2.00;;
13309;SDS011;6723;48.256;16.402;2022-08-07T12:22:11;3.13;;;1.70;;
13309;SDS011;6723;48.256;16.402;2022-08-07T12:28:16;2.13;;;1.97;;
13309;SDS011;6723;48.256;16.402;2022-08-07T12:30:47;3.00;;;2.10;;
13309;SDS011;6723;48.256;16.402;2022-08-07T12:33:18;2.90;;;2.60;;
13309;SDS011;6723;48.256;16.402;2022-08-07T12:35:48;3.67;;;2.50;;
13309;SDS011;6723;48.256;16.402;2022-08-07T12:38:16;2.80;;;2.03;;
13309;SDS011;6723;48.256;16.402;2022-08-07T12:40:44;3.97;;;2.37;;
13309;SDS011;6723;48.256;16.402;2022-08-07T12:43:13;4.20;;;2.10;;
13309;SDS011;6723;48.256;16.402;2022-08-07T12:45:46;2.50;;;2.27;;
13309;SDS011;6723;48.256;16.402;2022-08-07T12:48:31;2.80;;;2.20;;
13309;SDS011;6723;48.256;16.402;2022-08-07T12:51:12;4.97;;;2.60;;
13309;SDS011;6723;48.256;16.402;2022-08-07T12:53:43;2.80;;;2.30;;
13309;SDS011;6723;48.256;16.402;2022-08-07T12:58:52;3.13;;;2.37;;
13309;SDS011;6723;48.256;16.402;2022-08-07T13:23:44;3.97;;;3.53;;
13309;SDS011;6723;48.256;16.402;2022-08-07T13:29:15;2.60;;;2.40;;
13309;SDS011;6723;48.256;16.402;2022-08-07T13:34:45;3.03;;;2.30;;
13309;SDS011;6723;48.256;16.402;2022-08-07T13:40:19;4.67;;;4.27;;
13309;SDS011;6723;48.256;16.402;2022-08-07T13:43:03;4.97;;;3.77;;
13309;SDS011;6723;48.256;16.402;2022-08-07T13:45:31;3.87;;;2.80;;
13309;SDS011;6723;48.256;16.402;2022-08-07T13:48:00;3.50;;;3.20;;
13309;SDS011;6723;48.256;16.402;2022-08-07T13:53:05;5.50;;;4.83;;
13309;SDS011;6723;48.256;16.402;2022-08-07T13:55:33;4.70;;;3.53;;
13309;SDS011;6723;48.256;16.402;2022-08-07T13:58:05;4.93;;;3.87;;
13309;SDS011;6723;48.256;16.402;2022-08-07T14:00:52;5.83;;;4.03;;
13309;SDS011;6723;48.256;16.402;2022-08-07T14:03:19;3.40;;;3.10;;
13309;SDS011;6723;48.256;16.402;2022-08-07T14:05:51;4.63;;;4.17;;
13309;SDS011;6723;48.256;16.402;2022-08-07T14:08:21;4.03;;;3.10;;
13309;SDS011;6723;48.256;16.402;2022-08-07T14:10:49;4.33;;;2.60;;
13309;SDS011;6723;48.256;16.402;2022-08-07T14:13:20;5.43;;;2.60;;
13309;SDS011;6723;48.256;16.402;2022-08-07T14:15:56;3.90;;;2.30;;
13309;SDS011;6723;48.256;16.402;2022-08-07T14:18:30;2.03;;;1.87;;
13309;SDS011;6723;48.256;16.402;2022-08-07T14:21:04;5.23;;;2.77;;
13309;SDS011;6723;48.256;16.402;2022-08-07T14:23:34;2.97;;;2.67;;
13309;SDS011;6723;48.256;16.402;2022-08-07T14:26:16;4.50;;;3.30;;
13309;SDS011;6723;48.256;16.402;2022-08-07T14:28:45;6.00;;;3.83;;
13309;SDS011;6723;48.256;16.402;2022-08-07T14:31:13;3.40;;;3.10;;
13309;SDS011;6723;48.256;16.402;2022-08-07T14:33:40;3.67;;;2.53;;
13309;SDS011;6723;48.256;16.402;2022-08-07T14:36:08;2.97;;;2.37;;
13309;SDS011;6723;48.256;16.402;2022-08-07T14:38:35;3.03;;;2.60;;
13309;SDS011;6723;48.256;16.402;2022-08-07T14:41:04;2.33;;;2.13;;
13309;SDS011;6723;48.256;16.402;2022-08-07T14:43:32;3.73;;;2.03;;
13309;SDS011;6723;48.256;16.402;2022-08-07T14:46:02;3.33;;;2.20;;
13309;SDS011;6723;48.256;16.402;2022-08-07T14:48:33;3.13;;;2.30;;
13309;SDS011;6723;48.256;16.402;2022-08-07T14:51:08;2.83;;;2.40;;
13309;SDS011;6723;48.256;16.402;2022-08-07T14:53:38;3.00;;;2.30;;
13309;SDS011;6723;48.256;16.402;2022-08-07T14:56:07;3.73;;;2.20;;
13309;SDS011;6723;48.256;16.402;2022-08-07T14:58:39;2.33;;;2.13;;
13309;SDS011;6723;48.256;16.402;2022-08-07T15:01:09;2.10;;;1.90;;
13309;SDS011;6723;48.256;16.402;2022-08-07T15:03:36;3.23;;;2.20;;
13309;SDS011;6723;48.256;16.402;2022-08-07T15:06:04;2.53;;;2.30;;
13309;SDS011;6723;48.256;16.402;2022-08-07T15:08:32;2.83;;;2.27;;
13309;SDS011;6723;48.256;16.402;2022-08-07T15:11:10;2.70;;;2.13;;
13309;SDS011;6723;48.256;16.402;2022-08-07T15:13:40;2.40;;;2.20;;
13309;SDS011;6723;48.256;16.402;2022-08-07T15:16:16;2.33;;;2.10;;
13309;SDS011;6723;48.256;16.402;2022-08-07T15:18:43;3.53;;;2.30;;
13309;SDS011;6723;48.256;16.402;2022-08-07T15:21:25;2.60;;;2.27;;
13309;SDS011;6723;48.256;16.402;2022-08-07T15:23:57;3.27;;;2.10;;
13309;SDS011;6723;48.256;16.402;2022-08-07T15:26:44;5.53;;;2.40;;
13309;SDS011;6723;48.256;16.402;2022-08-07T15:29:14;3.67;;;2.37;;
13309;SDS011;6723;48.256;16.402;2022-08-07T15:31:46;3.03;;;2.50;;
13309;SDS011;6723;48.256;16.402;2022-08-07T15:34:15;3.10;;;2.80;;
13309;SDS011;6723;48.256;16.402;2022-08-07T15:36:43;2.70;;;2.50;;
13309;SDS011;6723;48.256;16.402;2022-08-07T15:39:11;2.90;;;2.60;;
13309;SDS011;6723;48.256;16.402;2022-08-07T15:41:42;2.73;;;2.20;;
13309;SDS011;6723;48.256;16.402;2022-08-07T15:44:22;2.67;;;2.47;;
13309;SDS011;6723;48.256;16.402;2022-08-07T15:46:55;7.67;;;6.13;;
13309;SDS011;6723;48.256;16.402;2022-08-07T15:49:26;8.23;;;6.83;;
13309;SDS011;6723;48.256;16.402;2022-08-07T15:51:54;4.83;;;4.03;;
13309;SDS011;6723;48.256;16.402;2022-08-07T15:57:03;3.33;;;2.60;;
13309;SDS011;6723;48.256;16.402;2022-08-07T15:59:32;6.47;;;3.30;;
13309;SDS011;6723;48.256;16.402;2022-08-07T16:01:59;4.00;;;2.93;;
13309;SDS011;6723;48.256;16.402;2022-08-07T16:04:30;5.13;;;3.40;;
13309;SDS011;6723;48.256;16.402;2022-08-07T16:07:03;3.83;;;3.20;;
13309;SDS011;6723;48.256;16.402;2022-08-07T16:09:35;5.20;;;3.20;;
13309;SDS011;6723;48.256;16.402;2022-08-07T16:18:01;3.57;;;3.03;;
13309;SDS011;6723;48.256;16.402;2022-08-07T16:20:36;7.97;;;3.80;;
13309;SDS011;6723;48.256;16.402;2022-08-07T16:31:53;4.10;;;3.80;;
13309;SDS011;6723;48.256;16.402;2022-08-07T16:35:03;36.90;;;10.27;;
13309;SDS011;6723;48.256;16.402;2022-08-07T16:54:56;8.70;;;4.43;;
13309;SDS011;6723;48.256;16.402;2022-08-07T17:00:40;7.73;;;4.00;;
13309;SDS011;6723;48.256;16.402;2022-08-07T17:04:02;5.27;;;3.30;;
13309;SDS011;6723;48.256;16.402;2022-08-07T17:06:26;3.47;;;3.17;;
13309;SDS011;6723;48.256;16.402;2022-08-07T17:09:00;3.57;;;3.13;;
13309;SDS011;6723;48.256;16.402;2022-08-07T17:14:17;4.73;;;3.20;;
13309;SDS011;6723;48.256;16.402;2022-08-07T17:17:07;5.53;;;3.60;;
13309;SDS011;6723;48.256;16.402;2022-08-07T17:19:44;3.77;;;3.37;;
13309;SDS011;6723;48.256;16.402;2022-08-07T17:22:18;8.73;;;3.80;;
13309;SDS011;6723;48.256;16.402;2022-08-07T17:25:18;4.37;;;3.77;;
13309;SDS011;6723;48.256;16.402;2022-08-07T17:30:16;7.27;;;4.73;;
13309;SDS011;6723;48.256;16.402;2022-08-07T17:33:26;9.80;;;7.50;;
13309;SDS011;6723;48.256;16.402;2022-08-07T17:35:51;11.90;;;5.17;;
13309;SDS011;6723;48.256;16.402;2022-08-07T17:38:40;7.30;;;4.90;;
13309;SDS011;6723;48.256;16.402;2022-08-07T17:44:13;6.20;;;4.03;;
13309;SDS011;6723;48.256;16.402;2022-08-07T17:47:02;4.63;;;3.70;;
13309;SDS011;6723;48.256;16.402;2022-08-07T17:49:40;6.40;;;4.60;;
13309;SDS011;6723;48.256;16.402;2022-08-07T17:52:26;5.43;;;4.53;;
13309;SDS011;6723;48.256;16.402;2022-08-07T17:55:01;6.50;;;5.10;;
13309;SDS011;6723;48.256;16.402;2022-08-07T18:00:33;6.37;;;4.70;;
13309;SDS011;6723;48.256;16.402;2022-08-07T18:05:53;6.03;;;5.20;;
13309;SDS011;6723;48.256;16.402;2022-08-07T18:08:31;5.40;;;4.90;;
13309;SDS011;6723;48.256;16.402;2022-08-07T18:11:05;5.30;;;4.90;;
13309;SDS011;6723;48.256;16.402;2022-08-07T18:13:39;4.90;;;4.30;;
13309;SDS011;6723;48.256;16.402;2022-08-07T18:16:18;5.57;;;4.57;;
13309;SDS011;6723;48.256;16.402;2022-08-07T18:19:14;6.57;;;5.23;;
13309;SDS011;6723;48.256;16.402;2022-08-07T18:21:46;6.13;;;4.77;;
13309;SDS011;6723;48.256;16.402;2022-08-07T18:24:47;12.53;;;7.90;;
13309;SDS011;6723;48.256;16.402;2022-08-07T18:30:10;5.87;;;5.37;;
13309;SDS011;6723;48.256;16.402;2022-08-07T18:38:26;7.90;;;6.50;;
13309;SDS011;6723;48.256;16.402;2022-08-07T18:41:07;10.73;;;8.37;;
13309;SDS011;6723;48.256;16.402;2022-08-07T18:52:51;11.63;;;9.57;;
13309;SDS011;6723;48.256;16.402;2022-08-07T19:01:43;14.37;;;12.77;;
13309;SDS011;6723;48.256;16.402;2022-08-07T19:04:26;10.97;;;10.07;;
13309;SDS011;6723;48.256;16.402;2022-08-07T19:07:06;10.73;;;9.17;;
13309;SDS011;6723;48.256;16.402;2022-08-07T19:09:45;12.73;;;9.70;;
13309;SDS011;6723;48.256;16.402;2022-08-07T19:12:19;10.23;;;9.33;;
13309;SDS011;6723;48.256;16.402;2022-08-07T19:17:55;9.33;;;8.37;;
13309;SDS011;6723;48.256;16.402;2022-08-07T19:20:40;9.70;;;8.80;;
13309;SDS011;6723;48.256;16.402;2022-08-07T19:23:38;9.07;;;6.87;;
13309;SDS011;6723;48.256;16.402;2022-08-07T19:26:09;9.33;;;8.13;;